sensor_id;sensor_type;location;lat;lon;timestamp;pressure;altitude;pressure_sealevel;temperature
31528;BMP280;10206;48.012;10.030;2023-06-22T00:02:14;94837.22;;;23.35
31528;BMP280;10206;48.012;10.030;2023-06-22T00:04:40;94831.06;;;23.38
31528;BMP280;10206;48.012;10.030;2023-06-22T00:07:06;94837.34;;;23.13
31528;BMP280;10206;48.012;10.030;2023-06-22T00:09:33;94838.44;;;23.02
31528;BMP280;10206;48.012;10.030;2023-06-22T00:11:59;94838.28;;;22.96
31528;BMP280;10206;48.012;10.030;2023-06-22T00:14:25;94830.91;;;22.83
31528;BMP280;10206;48.012;10.030;2023-06-22T00:16:51;94835.41;;;22.94
31528;BMP280;10206;48.012;10.030;2023-06-22T00:19:23;94833.72;;;23.34
31528;BMP280;10206;48.012;10.030;2023-06-22T00:21:50;94834.00;;;23.44
31528;BMP280;10206;48.012;10.030;2023-06-22T00:24:19;94824.50;;;23.28
31528;BMP280;10206;48.012;10.030;2023-06-22T00:26:45;94831.53;;;23.05
31528;BMP280;10206;48.012;10.030;2023-06-22T00:29:12;94819.47;;;23.22
31528;BMP280;10206;48.012;10.030;2023-06-22T00:31:38;94809.25;;;23.29
31528;BMP280;10206;48.012;10.030;2023-06-22T00:34:04;94816.09;;;23.26
31528;BMP280;10206;48.012;10.030;2023-06-22T00:36:32;94822.25;;;22.97
31528;BMP280;10206;48.012;10.030;2023-06-22T00:38:58;94816.19;;;23.04
31528;BMP280;10206;48.012;10.030;2023-06-22T00:41:24;94827.41;;;23.06
31528;BMP280;10206;48.012;10.030;2023-06-22T00:43:54;94830.38;;;22.89
31528;BMP280;10206;48.012;10.030;2023-06-22T00:46:21;94831.88;;;22.68
31528;BMP280;10206;48.012;10.030;2023-06-22T00:48:48;94817.03;;;23.09
31528;BMP280;10206;48.012;10.030;2023-06-22T00:51:16;94813.22;;;23.22
31528;BMP280;10206;48.012;10.030;2023-06-22T00:53:42;94813.72;;;23.14
31528;BMP280;10206;48.012;10.030;2023-06-22T00:56:09;94818.78;;;23.22
31528;BMP280;10206;48.012;10.030;2023-06-22T00:58:38;94807.34;;;23.37
31528;BMP280;10206;48.012;10.030;2023-06-22T01:01:07;94806.03;;;23.40
31528;BMP280;10206;48.012;10.030;2023-06-22T01:03:33;94801.78;;;23.37
31528;BMP280;10206;48.012;10.030;2023-06-22T01:06:10;94811.44;;;23.07
31528;BMP280;10206;48.012;10.030;2023-06-22T01:08:47;94806.50;;;23.31
31528;BMP280;10206;48.012;10.030;2023-06-22T01:11:37;94813.75;;;23.42
31528;BMP280;10206;48.012;10.030;2023-06-22T01:14:15;94809.59;;;22.92
31528;BMP280;10206;48.012;10.030;2023-06-22T01:16:44;94804.19;;;22.98
31528;BMP280;10206;48.012;10.030;2023-06-22T01:19:35;94811.31;;;23.03
31528;BMP280;10206;48.012;10.030;2023-06-22T01:22:03;94813.16;;;22.71
31528;BMP280;10206;48.012;10.030;2023-06-22T01:24:57;94802.56;;;22.89
31528;BMP280;10206;48.012;10.030;2023-06-22T01:30:07;94801.63;;;22.80
31528;BMP280;10206;48.012;10.030;2023-06-22T01:32:37;94813.34;;;22.77
31528;BMP280;10206;48.012;10.030;2023-06-22T01:35:05;94813.59;;;22.61
31528;BMP280;10206;48.012;10.030;2023-06-22T01:37:33;94817.69;;;22.58
31528;BMP280;10206;48.012;10.030;2023-06-22T01:40:01;94814.47;;;22.44
31528;BMP280;10206;48.012;10.030;2023-06-22T01:42:27;94821.19;;;22.58
31528;BMP280;10206;48.012;10.030;2023-06-22T01:44:54;94815.75;;;22.41
31528;BMP280;10206;48.012;10.030;2023-06-22T01:47:22;94814.22;;;22.59
31528;BMP280;10206;48.012;10.030;2023-06-22T01:49:50;94821.97;;;22.63
31528;BMP280;10206;48.012;10.030;2023-06-22T01:52:18;94822.00;;;22.18
31528;BMP280;10206;48.012;10.030;2023-06-22T01:54:44;94827.06;;;22.23
31528;BMP280;10206;48.012;10.030;2023-06-22T01:57:10;94828.53;;;22.26
31528;BMP280;10206;48.012;10.030;2023-06-22T01:59:49;94833.00;;;22.35
31528;BMP280;10206;48.012;10.030;2023-06-22T02:02:20;94831.91;;;22.23
31528;BMP280;10206;48.012;10.030;2023-06-22T02:05:08;94828.59;;;21.85
31528;BMP280;10206;48.012;10.030;2023-06-22T02:07:50;94829.44;;;22.11
31528;BMP280;10206;48.012;10.030;2023-06-22T02:10:21;94832.41;;;22.17
31528;BMP280;10206;48.012;10.030;2023-06-22T02:12:48;94836.47;;;22.14
31528;BMP280;10206;48.012;10.030;2023-06-22T02:15:16;94845.78;;;22.01
31528;BMP280;10206;48.012;10.030;2023-06-22T02:17:43;94845.78;;;22.01
31528;BMP280;10206;48.012;10.030;2023-06-22T02:20:14;94844.69;;;22.10
31528;BMP280;10206;48.012;10.030;2023-06-22T02:22:41;94852.72;;;22.00
31528;BMP280;10206;48.012;10.030;2023-06-22T02:25:07;94845.84;;;21.82
31528;BMP280;10206;48.012;10.030;2023-06-22T02:27:34;94843.78;;;21.82
31528;BMP280;10206;48.012;10.030;2023-06-22T02:30:00;94848.13;;;21.87
31528;BMP280;10206;48.012;10.030;2023-06-22T02:32:26;94848.31;;;21.93
31528;BMP280;10206;48.012;10.030;2023-06-22T02:34:53;94845.19;;;21.83
31528;BMP280;10206;48.012;10.030;2023-06-22T02:37:19;94859.28;;;21.89
31528;BMP280;10206;48.012;10.030;2023-06-22T02:39:45;94852.59;;;21.96
31528;BMP280;10206;48.012;10.030;2023-06-22T02:42:11;94848.63;;;21.82
31528;BMP280;10206;48.012;10.030;2023-06-22T02:44:37;94858.94;;;21.79
31528;BMP280;10206;48.012;10.030;2023-06-22T02:47:04;94851.72;;;21.92
31528;BMP280;10206;48.012;10.030;2023-06-22T02:49:30;94864.13;;;21.89
31528;BMP280;10206;48.012;10.030;2023-06-22T02:51:58;94853.91;;;21.95
31528;BMP280;10206;48.012;10.030;2023-06-22T02:54:24;94864.38;;;21.75
31528;BMP280;10206;48.012;10.030;2023-06-22T02:56:50;94871.59;;;21.63
31528;BMP280;10206;48.012;10.030;2023-06-22T02:59:16;94856.56;;;21.70
31528;BMP280;10206;48.012;10.030;2023-06-22T03:01:42;94853.34;;;21.77
31528;BMP280;10206;48.012;10.030;2023-06-22T03:04:09;94872.56;;;21.71
31528;BMP280;10206;48.012;10.030;2023-06-22T03:06:36;94857.81;;;21.86
31528;BMP280;10206;48.012;10.030;2023-06-22T03:09:03;94859.22;;;21.87
31528;BMP280;10206;48.012;10.030;2023-06-22T03:11:34;94865.00;;;21.93
31528;BMP280;10206;48.012;10.030;2023-06-22T03:14:00;94858.81;;;21.75
31528;BMP280;10206;48.012;10.030;2023-06-22T03:16:27;94860.34;;;21.78
31528;BMP280;10206;48.012;10.030;2023-06-22T03:18:53;94858.03;;;21.73
31528;BMP280;10206;48.012;10.030;2023-06-22T03:21:21;94858.31;;;21.59
31528;BMP280;10206;48.012;10.030;2023-06-22T03:23:48;94846.22;;;21.72
31528;BMP280;10206;48.012;10.030;2023-06-22T03:26:17;94840.00;;;21.52
31528;BMP280;10206;48.012;10.030;2023-06-22T03:28:43;94857.78;;;21.45
31528;BMP280;10206;48.012;10.030;2023-06-22T03:31:10;94858.75;;;21.73
31528;BMP280;10206;48.012;10.030;2023-06-22T03:33:36;94846.09;;;21.68
31528;BMP280;10206;48.012;10.030;2023-06-22T03:36:02;94841.38;;;21.73
31528;BMP280;10206;48.012;10.030;2023-06-22T03:38:29;94843.44;;;21.72
31528;BMP280;10206;48.012;10.030;2023-06-22T03:40:55;94841.59;;;21.79
31528;BMP280;10206;48.012;10.030;2023-06-22T03:43:22;94835.97;;;21.77
31528;BMP280;10206;48.012;10.030;2023-06-22T03:45:48;94840.22;;;21.80
31528;BMP280;10206;48.012;10.030;2023-06-22T03:48:14;94835.19;;;21.74
31528;BMP280;10206;48.012;10.030;2023-06-22T03:50:41;94839.69;;;21.64
31528;BMP280;10206;48.012;10.030;2023-06-22T03:53:07;94821.78;;;21.47
31528;BMP280;10206;48.012;10.030;2023-06-22T03:55:34;94834.22;;;21.87
31528;BMP280;10206;48.012;10.030;2023-06-22T03:58:01;94846.34;;;21.76
31528;BMP280;10206;48.012;10.030;2023-06-22T04:00:32;94821.97;;;21.94
31528;BMP280;10206;48.012;10.030;2023-06-22T04:02:58;94838.88;;;21.59
31528;BMP280;10206;48.012;10.030;2023-06-22T04:05:24;94830.72;;;21.65
31528;BMP280;10206;48.012;10.030;2023-06-22T04:07:50;94831.94;;;21.82
31528;BMP280;10206;48.012;10.030;2023-06-22T04:10:16;94826.66;;;22.11
31528;BMP280;10206;48.012;10.030;2023-06-22T04:12:42;94812.44;;;22.23
31528;BMP280;10206;48.012;10.030;2023-06-22T04:15:09;94829.88;;;22.25
31528;BMP280;10206;48.012;10.030;2023-06-22T04:17:35;94816.94;;;22.34
31528;BMP280;10206;48.012;10.030;2023-06-22T04:20:01;94824.22;;;22.69
31528;BMP280;10206;48.012;10.030;2023-06-22T04:22:29;94819.09;;;22.59
31528;BMP280;10206;48.012;10.030;2023-06-22T04:24:55;94821.25;;;23.10
31528;BMP280;10206;48.012;10.030;2023-06-22T04:27:22;94823.66;;;23.21
31528;BMP280;10206;48.012;10.030;2023-06-22T04:29:49;94817.09;;;23.36
31528;BMP280;10206;48.012;10.030;2023-06-22T04:32:15;94817.81;;;23.64
31528;BMP280;10206;48.012;10.030;2023-06-22T04:34:42;94813.31;;;23.81
31528;BMP280;10206;48.012;10.030;2023-06-22T04:37:08;94818.50;;;23.93
31528;BMP280;10206;48.012;10.030;2023-06-22T04:39:35;94821.00;;;24.73
31528;BMP280;10206;48.012;10.030;2023-06-22T04:42:01;94826.41;;;24.65
31528;BMP280;10206;48.012;10.030;2023-06-22T04:44:28;94826.50;;;24.69
31528;BMP280;10206;48.012;10.030;2023-06-22T04:46:59;94817.50;;;24.73
31528;BMP280;10206;48.012;10.030;2023-06-22T04:49:34;94822.56;;;24.80
31528;BMP280;10206;48.012;10.030;2023-06-22T04:52:10;94812.91;;;24.54
31528;BMP280;10206;48.012;10.030;2023-06-22T04:54:39;94816.47;;;24.58
31528;BMP280;10206;48.012;10.030;2023-06-22T04:57:07;94817.75;;;24.51
31528;BMP280;10206;48.012;10.030;2023-06-22T04:59:37;94815.78;;;24.58
31528;BMP280;10206;48.012;10.030;2023-06-22T05:02:05;94823.28;;;24.49
31528;BMP280;10206;48.012;10.030;2023-06-22T05:04:32;94811.09;;;24.66
31528;BMP280;10206;48.012;10.030;2023-06-22T05:06:59;94812.44;;;24.99
31528;BMP280;10206;48.012;10.030;2023-06-22T05:09:29;94825.38;;;25.18
31528;BMP280;10206;48.012;10.030;2023-06-22T05:11:56;94821.31;;;25.25
31528;BMP280;10206;48.012;10.030;2023-06-22T05:14:28;94806.19;;;25.00
31528;BMP280;10206;48.012;10.030;2023-06-22T05:16:54;94804.59;;;24.91
31528;BMP280;10206;48.012;10.030;2023-06-22T05:19:25;94804.22;;;25.45
31528;BMP280;10206;48.012;10.030;2023-06-22T05:21:57;94809.38;;;25.62
31528;BMP280;10206;48.012;10.030;2023-06-22T05:24:23;94806.03;;;25.72
31528;BMP280;10206;48.012;10.030;2023-06-22T05:26:49;94811.00;;;25.34
31528;BMP280;10206;48.012;10.030;2023-06-22T05:29:15;94814.59;;;25.82
31528;BMP280;10206;48.012;10.030;2023-06-22T05:31:41;94814.78;;;25.50
31528;BMP280;10206;48.012;10.030;2023-06-22T05:34:07;94807.75;;;25.47
31528;BMP280;10206;48.012;10.030;2023-06-22T05:36:33;94800.47;;;25.32
31528;BMP280;10206;48.012;10.030;2023-06-22T05:38:59;94810.69;;;25.99
31528;BMP280;10206;48.012;10.030;2023-06-22T05:41:36;94809.53;;;25.31
31528;BMP280;10206;48.012;10.030;2023-06-22T05:44:03;94803.31;;;25.76
31528;BMP280;10206;48.012;10.030;2023-06-22T05:46:29;94806.75;;;26.18
31528;BMP280;10206;48.012;10.030;2023-06-22T05:48:55;94810.03;;;26.04
31528;BMP280;10206;48.012;10.030;2023-06-22T05:51:21;94802.34;;;26.03
31528;BMP280;10206;48.012;10.030;2023-06-22T05:53:47;94804.69;;;26.18
31528;BMP280;10206;48.012;10.030;2023-06-22T05:56:16;94803.16;;;26.11
31528;BMP280;10206;48.012;10.030;2023-06-22T05:58:42;94797.69;;;26.19
31528;BMP280;10206;48.012;10.030;2023-06-22T06:01:08;94807.59;;;26.82
31528;BMP280;10206;48.012;10.030;2023-06-22T06:03:34;94807.72;;;26.92
31528;BMP280;10206;48.012;10.030;2023-06-22T06:06:07;94821.38;;;26.64
31528;BMP280;10206;48.012;10.030;2023-06-22T06:08:33;94809.16;;;26.95
31528;BMP280;10206;48.012;10.030;2023-06-22T06:11:00;94806.69;;;26.66
31528;BMP280;10206;48.012;10.030;2023-06-22T06:13:26;94798.53;;;26.88
31528;BMP280;10206;48.012;10.030;2023-06-22T06:15:52;94803.16;;;26.63
31528;BMP280;10206;48.012;10.030;2023-06-22T06:18:21;94807.56;;;26.78
31528;BMP280;10206;48.012;10.030;2023-06-22T06:20:47;94804.63;;;26.68
31528;BMP280;10206;48.012;10.030;2023-06-22T06:23:13;94802.25;;;27.06
31528;BMP280;10206;48.012;10.030;2023-06-22T06:25:39;94806.94;;;26.86
31528;BMP280;10206;48.012;10.030;2023-06-22T06:28:05;94801.78;;;27.30
31528;BMP280;10206;48.012;10.030;2023-06-22T06:30:31;94798.44;;;27.47
31528;BMP280;10206;48.012;10.030;2023-06-22T06:32:58;94802.28;;;27.90
31528;BMP280;10206;48.012;10.030;2023-06-22T06:35:24;94801.59;;;27.89
31528;BMP280;10206;48.012;10.030;2023-06-22T06:37:50;94794.78;;;28.21
31528;BMP280;10206;48.012;10.030;2023-06-22T06:40:18;94801.81;;;28.26
31528;BMP280;10206;48.012;10.030;2023-06-22T06:42:46;94796.16;;;28.18
31528;BMP280;10206;48.012;10.030;2023-06-22T06:45:14;94786.16;;;27.86
31528;BMP280;10206;48.012;10.030;2023-06-22T06:47:41;94788.44;;;28.18
31528;BMP280;10206;48.012;10.030;2023-06-22T06:50:08;94788.41;;;28.10
31528;BMP280;10206;48.012;10.030;2023-06-22T06:52:34;94786.84;;;27.89
31528;BMP280;10206;48.012;10.030;2023-06-22T06:55:00;94785.81;;;28.52
31528;BMP280;10206;48.012;10.030;2023-06-22T06:57:26;94778.03;;;28.45
31528;BMP280;10206;48.012;10.030;2023-06-22T06:59:55;94782.38;;;28.72
31528;BMP280;10206;48.012;10.030;2023-06-22T07:02:22;94780.28;;;28.78
31528;BMP280;10206;48.012;10.030;2023-06-22T07:04:48;94788.06;;;28.88
31528;BMP280;10206;48.012;10.030;2023-06-22T07:07:14;94786.66;;;29.07
31528;BMP280;10206;48.012;10.030;2023-06-22T07:09:41;94793.72;;;29.14
31528;BMP280;10206;48.012;10.030;2023-06-22T07:12:07;94790.84;;;28.90
31528;BMP280;10206;48.012;10.030;2023-06-22T07:14:33;94790.16;;;28.93
31528;BMP280;10206;48.012;10.030;2023-06-22T07:16:59;94783.06;;;28.64
31528;BMP280;10206;48.012;10.030;2023-06-22T07:19:27;94779.56;;;28.80
31528;BMP280;10206;48.012;10.030;2023-06-22T07:21:54;94776.75;;;28.80
31528;BMP280;10206;48.012;10.030;2023-06-22T07:24:21;94773.34;;;29.27
31528;BMP280;10206;48.012;10.030;2023-06-22T07:26:48;94778.28;;;29.33
31528;BMP280;10206;48.012;10.030;2023-06-22T07:29:19;94769.84;;;29.49
31528;BMP280;10206;48.012;10.030;2023-06-22T07:31:47;94772.66;;;29.17
31528;BMP280;10206;48.012;10.030;2023-06-22T07:34:13;94775.38;;;29.95
31528;BMP280;10206;48.012;10.030;2023-06-22T07:36:39;94781.06;;;29.67
31528;BMP280;10206;48.012;10.030;2023-06-22T07:39:05;94790.94;;;29.68
31528;BMP280;10206;48.012;10.030;2023-06-22T07:41:32;94784.59;;;29.71
31528;BMP280;10206;48.012;10.030;2023-06-22T07:43:58;94776.81;;;29.90
31528;BMP280;10206;48.012;10.030;2023-06-22T07:46:24;94783.06;;;30.25
31528;BMP280;10206;48.012;10.030;2023-06-22T07:48:50;94775.44;;;29.47
31528;BMP280;10206;48.012;10.030;2023-06-22T07:51:17;94784.59;;;29.53
31528;BMP280;10206;48.012;10.030;2023-06-22T07:53:44;94784.56;;;29.27
31528;BMP280;10206;48.012;10.030;2023-06-22T07:56:14;94786.69;;;29.49
31528;BMP280;10206;48.012;10.030;2023-06-22T07:58:45;94778.81;;;30.32
31528;BMP280;10206;48.012;10.030;2023-06-22T08:01:12;94785.22;;;29.98
31528;BMP280;10206;48.012;10.030;2023-06-22T08:03:38;94780.91;;;30.31
31528;BMP280;10206;48.012;10.030;2023-06-22T08:06:06;94787.34;;;30.08
31528;BMP280;10206;48.012;10.030;2023-06-22T08:08:34;94786.94;;;30.98
31528;BMP280;10206;48.012;10.030;2023-06-22T08:11:01;94786.97;;;30.92
31528;BMP280;10206;48.012;10.030;2023-06-22T08:13:27;94791.41;;;30.51
31528;BMP280;10206;48.012;10.030;2023-06-22T08:15:53;94790.84;;;30.08
31528;BMP280;10206;48.012;10.030;2023-06-22T08:18:19;94785.22;;;30.12
31528;BMP280;10206;48.012;10.030;2023-06-22T08:20:46;94785.19;;;30.18
31528;BMP280;10206;48.012;10.030;2023-06-22T08:23:12;94778.22;;;29.85
31528;BMP280;10206;48.012;10.030;2023-06-22T08:25:38;94771.03;;;30.40
31528;BMP280;10206;48.012;10.030;2023-06-22T08:28:04;94780.31;;;29.99
31528;BMP280;10206;48.012;10.030;2023-06-22T08:30:31;94775.31;;;30.29
31528;BMP280;10206;48.012;10.030;2023-06-22T08:32:57;94771.50;;;30.81
31528;BMP280;10206;48.012;10.030;2023-06-22T08:35:24;94764.63;;;30.54
31528;BMP280;10206;48.012;10.030;2023-06-22T08:37:50;94763.41;;;31.37
31528;BMP280;10206;48.012;10.030;2023-06-22T08:40:20;94766.03;;;31.57
31528;BMP280;10206;48.012;10.030;2023-06-22T08:42:47;94773.84;;;31.53
31528;BMP280;10206;48.012;10.030;2023-06-22T08:45:14;94773.31;;;31.30
31528;BMP280;10206;48.012;10.030;2023-06-22T08:47:41;94771.13;;;31.41
31528;BMP280;10206;48.012;10.030;2023-06-22T08:50:09;94765.22;;;31.69
31528;BMP280;10206;48.012;10.030;2023-06-22T08:52:36;94773.25;;;32.11
31528;BMP280;10206;48.012;10.030;2023-06-22T08:55:03;94765.09;;;32.42
31528;BMP280;10206;48.012;10.030;2023-06-22T08:57:29;94766.09;;;32.75
31528;BMP280;10206;48.012;10.030;2023-06-22T08:59:56;94774.06;;;33.07
31528;BMP280;10206;48.012;10.030;2023-06-22T09:02:28;94765.16;;;32.90
31528;BMP280;10206;48.012;10.030;2023-06-22T09:04:57;94755.28;;;33.32
31528;BMP280;10206;48.012;10.030;2023-06-22T09:07:24;94761.53;;;33.38
31528;BMP280;10206;48.012;10.030;2023-06-22T09:09:51;94749.88;;;33.18
31528;BMP280;10206;48.012;10.030;2023-06-22T09:12:19;94754.16;;;33.15
31528;BMP280;10206;48.012;10.030;2023-06-22T09:14:46;94760.66;;;33.05
31528;BMP280;10206;48.012;10.030;2023-06-22T09:17:15;94760.72;;;33.01
31528;BMP280;10206;48.012;10.030;2023-06-22T09:19:41;94769.78;;;33.10
31528;BMP280;10206;48.012;10.030;2023-06-22T09:22:07;94781.13;;;33.50
31528;BMP280;10206;48.012;10.030;2023-06-22T09:24:33;94788.53;;;33.72
31528;BMP280;10206;48.012;10.030;2023-06-22T09:27:00;94796.97;;;33.76
31528;BMP280;10206;48.012;10.030;2023-06-22T09:29:26;94786.59;;;33.62
31528;BMP280;10206;48.012;10.030;2023-06-22T09:31:52;94776.19;;;33.06
31528;BMP280;10206;48.012;10.030;2023-06-22T09:34:21;94774.88;;;33.44
31528;BMP280;10206;48.012;10.030;2023-06-22T09:36:47;94775.31;;;32.71
31528;BMP280;10206;48.012;10.030;2023-06-22T09:39:13;94771.88;;;32.63
31528;BMP280;10206;48.012;10.030;2023-06-22T09:41:40;94786.03;;;33.11
31528;BMP280;10206;48.012;10.030;2023-06-22T09:44:06;94781.34;;;33.38
31528;BMP280;10206;48.012;10.030;2023-06-22T09:46:32;94776.44;;;33.35
31528;BMP280;10206;48.012;10.030;2023-06-22T09:48:58;94783.34;;;33.84
31528;BMP280;10206;48.012;10.030;2023-06-22T09:51:24;94782.72;;;33.41
31528;BMP280;10206;48.012;10.030;2023-06-22T09:53:51;94784.59;;;34.30
31528;BMP280;10206;48.012;10.030;2023-06-22T09:56:18;94802.44;;;34.57
31528;BMP280;10206;48.012;10.030;2023-06-22T09:58:45;94804.22;;;34.40
31528;BMP280;10206;48.012;10.030;2023-06-22T10:01:12;94803.50;;;33.66
31528;BMP280;10206;48.012;10.030;2023-06-22T10:03:40;94805.56;;;34.08
31528;BMP280;10206;48.012;10.030;2023-06-22T10:06:07;94795.97;;;33.53
31528;BMP280;10206;48.012;10.030;2023-06-22T10:08:35;94794.59;;;33.50
31528;BMP280;10206;48.012;10.030;2023-06-22T10:13:28;94780.56;;;33.82
31528;BMP280;10206;48.012;10.030;2023-06-22T10:15:54;94787.91;;;34.06
31528;BMP280;10206;48.012;10.030;2023-06-22T10:18:21;94786.34;;;34.13
31528;BMP280;10206;48.012;10.030;2023-06-22T10:20:50;94788.22;;;33.90
31528;BMP280;10206;48.012;10.030;2023-06-22T10:23:17;94794.41;;;34.98
31528;BMP280;10206;48.012;10.030;2023-06-22T10:25:44;94798.03;;;34.97
31528;BMP280;10206;48.012;10.030;2023-06-22T10:28:10;94790.31;;;35.22
31528;BMP280;10206;48.012;10.030;2023-06-22T10:30:36;94791.31;;;35.10
31528;BMP280;10206;48.012;10.030;2023-06-22T10:33:02;94797.56;;;35.43
31528;BMP280;10206;48.012;10.030;2023-06-22T10:35:28;94796.31;;;35.36
31528;BMP280;10206;48.012;10.030;2023-06-22T10:37:55;94795.47;;;35.70
31528;BMP280;10206;48.012;10.030;2023-06-22T10:40:22;94785.59;;;35.94
31528;BMP280;10206;48.012;10.030;2023-06-22T10:42:48;94784.00;;;35.19
31528;BMP280;10206;48.012;10.030;2023-06-22T10:45:16;94779.66;;;35.77
31528;BMP280;10206;48.012;10.030;2023-06-22T10:47:42;94767.94;;;35.36
31528;BMP280;10206;48.012;10.030;2023-06-22T10:50:08;94763.00;;;35.63
31528;BMP280;10206;48.012;10.030;2023-06-22T10:52:35;94768.13;;;35.83
31528;BMP280;10206;48.012;10.030;2023-06-22T10:55:01;94764.94;;;35.95
31528;BMP280;10206;48.012;10.030;2023-06-22T10:57:27;94766.69;;;36.33
31528;BMP280;10206;48.012;10.030;2023-06-22T10:59:53;94772.91;;;36.62
31528;BMP280;10206;48.012;10.030;2023-06-22T11:02:19;94773.75;;;35.32
31528;BMP280;10206;48.012;10.030;2023-06-22T11:04:45;94767.56;;;35.52
31528;BMP280;10206;48.012;10.030;2023-06-22T11:07:12;94768.09;;;35.59
31528;BMP280;10206;48.012;10.030;2023-06-22T11:09:38;94765.22;;;35.32
31528;BMP280;10206;48.012;10.030;2023-06-22T11:12:05;94757.31;;;35.63
31528;BMP280;10206;48.012;10.030;2023-06-22T11:14:32;94753.75;;;35.65
31528;BMP280;10206;48.012;10.030;2023-06-22T11:16:59;94752.69;;;35.76
31528;BMP280;10206;48.012;10.030;2023-06-22T11:19:25;94744.44;;;34.52
31528;BMP280;10206;48.012;10.030;2023-06-22T11:21:51;94740.84;;;33.86
31528;BMP280;10206;48.012;10.030;2023-06-22T11:24:18;94742.16;;;34.89
31528;BMP280;10206;48.012;10.030;2023-06-22T11:26:44;94747.34;;;35.38
31528;BMP280;10206;48.012;10.030;2023-06-22T11:29:10;94730.69;;;35.50
31528;BMP280;10206;48.012;10.030;2023-06-22T11:31:36;94739.28;;;36.24
31528;BMP280;10206;48.012;10.030;2023-06-22T11:34:03;94736.03;;;36.83
31528;BMP280;10206;48.012;10.030;2023-06-22T11:36:30;94741.97;;;37.18
31528;BMP280;10206;48.012;10.030;2023-06-22T11:38:58;94739.28;;;37.34
31528;BMP280;10206;48.012;10.030;2023-06-22T11:41:25;94730.78;;;36.69
31528;BMP280;10206;48.012;10.030;2023-06-22T11:43:51;94725.06;;;37.34
31528;BMP280;10206;48.012;10.030;2023-06-22T11:46:17;94716.53;;;36.91
31528;BMP280;10206;48.012;10.030;2023-06-22T11:48:43;94708.28;;;36.61
31528;BMP280;10206;48.012;10.030;2023-06-22T11:51:09;94714.94;;;36.96
31528;BMP280;10206;48.012;10.030;2023-06-22T11:53:35;94723.63;;;37.33
31528;BMP280;10206;48.012;10.030;2023-06-22T11:56:02;94714.19;;;37.59
31528;BMP280;10206;48.012;10.030;2023-06-22T11:58:28;94716.97;;;37.61
31528;BMP280;10206;48.012;10.030;2023-06-22T12:00:54;94715.84;;;36.68
31528;BMP280;10206;48.012;10.030;2023-06-22T12:03:20;94715.56;;;37.60
31528;BMP280;10206;48.012;10.030;2023-06-22T12:05:51;94713.63;;;37.55
31528;BMP280;10206;48.012;10.030;2023-06-22T12:08:18;94707.13;;;37.77
31528;BMP280;10206;48.012;10.030;2023-06-22T12:10:44;94704.13;;;37.01
31528;BMP280;10206;48.012;10.030;2023-06-22T12:13:10;94715.13;;;36.90
31528;BMP280;10206;48.012;10.030;2023-06-22T12:15:36;94715.53;;;36.56
31528;BMP280;10206;48.012;10.030;2023-06-22T12:18:02;94711.63;;;36.67
31528;BMP280;10206;48.012;10.030;2023-06-22T12:20:29;94706.38;;;36.53
31528;BMP280;10206;48.012;10.030;2023-06-22T12:22:55;94716.41;;;35.81
31528;BMP280;10206;48.012;10.030;2023-06-22T12:25:24;94710.84;;;36.46
31528;BMP280;10206;48.012;10.030;2023-06-22T12:27:50;94712.53;;;37.05
31528;BMP280;10206;48.012;10.030;2023-06-22T12:30:17;94723.69;;;36.68
31528;BMP280;10206;48.012;10.030;2023-06-22T12:32:43;94725.97;;;36.16
31528;BMP280;10206;48.012;10.030;2023-06-22T12:35:09;94722.59;;;35.87
31528;BMP280;10206;48.012;10.030;2023-06-22T12:37:40;94726.16;;;35.86
31528;BMP280;10206;48.012;10.030;2023-06-22T12:40:07;94726.88;;;36.11
31528;BMP280;10206;48.012;10.030;2023-06-22T12:42:34;94726.31;;;35.55
31528;BMP280;10206;48.012;10.030;2023-06-22T12:45:00;94724.44;;;36.21
31528;BMP280;10206;48.012;10.030;2023-06-22T12:47:26;94714.56;;;35.94
31528;BMP280;10206;48.012;10.030;2023-06-22T12:49:52;94709.81;;;35.86
31528;BMP280;10206;48.012;10.030;2023-06-22T12:52:18;94715.00;;;35.53
31528;BMP280;10206;48.012;10.030;2023-06-22T12:54:44;94714.16;;;35.83
31528;BMP280;10206;48.012;10.030;2023-06-22T12:57:10;94703.13;;;34.61
31528;BMP280;10206;48.012;10.030;2023-06-22T12:59:36;94700.06;;;35.79
31528;BMP280;10206;48.012;10.030;2023-06-22T13:02:02;94695.16;;;35.78
31528;BMP280;10206;48.012;10.030;2023-06-22T13:04:28;94713.41;;;35.05
31528;BMP280;10206;48.012;10.030;2023-06-22T13:06:54;94730.66;;;36.03
31528;BMP280;10206;48.012;10.030;2023-06-22T13:09:20;94722.03;;;36.30
31528;BMP280;10206;48.012;10.030;2023-06-22T13:11:47;94717.09;;;36.06
31528;BMP280;10206;48.012;10.030;2023-06-22T13:14:13;94721.94;;;36.09
31528;BMP280;10206;48.012;10.030;2023-06-22T13:16:39;94730.19;;;35.68
31528;BMP280;10206;48.012;10.030;2023-06-22T13:19:05;94718.91;;;35.40
31528;BMP280;10206;48.012;10.030;2023-06-22T13:21:31;94735.63;;;35.78
31528;BMP280;10206;48.012;10.030;2023-06-22T13:23:58;94722.66;;;35.32
31528;BMP280;10206;48.012;10.030;2023-06-22T13:26:25;94704.16;;;35.35
31528;BMP280;10206;48.012;10.030;2023-06-22T13:28:51;94722.78;;;35.28
31528;BMP280;10206;48.012;10.030;2023-06-22T13:31:17;94722.97;;;35.47
31528;BMP280;10206;48.012;10.030;2023-06-22T13:33:43;94726.84;;;34.78
31528;BMP280;10206;48.012;10.030;2023-06-22T13:36:11;94719.31;;;34.95
31528;BMP280;10206;48.012;10.030;2023-06-22T13:38:37;94714.56;;;35.16
31528;BMP280;10206;48.012;10.030;2023-06-22T13:41:06;94711.75;;;35.43
31528;BMP280;10206;48.012;10.030;2023-06-22T13:43:32;94713.06;;;35.19
31528;BMP280;10206;48.012;10.030;2023-06-22T13:45:58;94707.78;;;35.58
31528;BMP280;10206;48.012;10.030;2023-06-22T13:48:25;94706.97;;;35.62
31528;BMP280;10206;48.012;10.030;2023-06-22T13:50:52;94703.25;;;35.67
31528;BMP280;10206;48.012;10.030;2023-06-22T13:53:18;94705.66;;;35.04
31528;BMP280;10206;48.012;10.030;2023-06-22T13:55:44;94709.25;;;35.29
31528;BMP280;10206;48.012;10.030;2023-06-22T13:58:11;94709.97;;;35.29
31528;BMP280;10206;48.012;10.030;2023-06-22T14:00:37;94694.47;;;35.51
31528;BMP280;10206;48.012;10.030;2023-06-22T14:03:03;94697.38;;;34.65